createdAt,value
2022-12-11T00:00:11.847Z,41.75
2022-12-11T00:01:07.394Z,41.36
2022-12-11T00:02:02.984Z,41.75
2022-12-11T00:02:58.525Z,41.16
2022-12-11T00:03:54.034Z,41.16
2022-12-11T00:04:49.572Z,41.25
2022-12-11T00:05:34.240Z,41.25
2022-12-11T00:06:29.772Z,41.05
2022-12-11T00:07:25.332Z,41.75
2022-12-11T00:08:20.888Z,40.95
2022-12-11T00:09:16.418Z,41.46
2022-12-11T00:10:11.955Z,41.25
2022-12-11T00:11:07.498Z,41.66
2022-12-11T00:12:03.052Z,41.25
2022-12-11T00:12:58.594Z,41.55
2022-12-11T00:13:54.138Z,41.46
2022-12-11T00:14:49.686Z,41.25
2022-12-11T00:15:45.231Z,41.46
2022-12-11T00:16:40.816Z,41.05
2022-12-11T00:17:36.307Z,41.36
2022-12-11T00:18:31.852Z,41.55
2022-12-11T00:19:27.402Z,41.36
2022-12-11T00:20:22.939Z,41.36
2022-12-11T00:21:18.481Z,41.46
2022-12-11T00:22:14.025Z,41.66
2022-12-11T00:23:09.577Z,41.46
2022-12-11T00:24:05.097Z,41.36
2022-12-11T00:25:00.642Z,41.36
2022-12-11T00:25:56.182Z,41.46
2022-12-11T00:26:40.847Z,41.75
2022-12-11T00:27:36.402Z,41.46
2022-12-11T00:28:31.948Z,40.75
2022-12-11T00:29:27.501Z,41.16
2022-12-11T00:30:23.037Z,41.66
2022-12-11T00:31:18.733Z,41.25
2022-12-11T00:32:14.284Z,41.16
2022-12-11T00:33:09.709Z,40.45
2022-12-11T00:34:05.246Z,41.66
2022-12-11T00:35:00.786Z,41.66
2022-12-11T00:35:45.452Z,41.16
2022-12-11T00:36:41.035Z,41.66
2022-12-11T00:37:36.627Z,41.36
2022-12-11T00:38:32.139Z,41.55
2022-12-11T00:39:27.651Z,41.46
2022-12-11T00:40:23.197Z,41.55
2022-12-11T00:41:18.738Z,41.36
2022-12-11T00:42:14.283Z,41.75
2022-12-11T00:43:09.835Z,41.46
2022-12-11T00:44:05.400Z,41.75
2022-12-11T00:45:00.938Z,40.75
2022-12-11T00:45:56.565Z,41.16
2022-12-11T00:46:41.150Z,40.66
2022-12-11T00:47:25.810Z,41.36
2022-12-11T00:48:21.359Z,40.95
2022-12-11T00:49:16.897Z,40.66
2022-12-11T00:50:12.434Z,41.66
2022-12-11T00:51:07.965Z,41.36
2022-12-11T00:52:03.503Z,40.66
2022-12-11T00:52:59.028Z,40.75
2022-12-11T00:53:54.601Z,41.75
2022-12-11T00:54:50.137Z,41.36
2022-12-11T00:55:45.671Z,41.16
2022-12-11T00:56:41.214Z,41.36
2022-12-11T00:57:37.350Z,41.36
2022-12-11T00:58:32.897Z,41.16
2022-12-11T00:59:28.445Z,41.36
2022-12-11T01:00:23.988Z,41.66
2022-12-11T01:01:08.531Z,41.36
2022-12-11T01:02:03.995Z,40.95
2022-12-11T01:02:59.611Z,41.05
2022-12-11T01:03:55.079Z,41.46
2022-12-11T01:04:50.618Z,41.16
2022-12-11T01:05:46.157Z,41.36
2022-12-11T01:06:41.687Z,40.45
2022-12-11T01:07:37.242Z,41.55
2022-12-11T01:08:38.302Z,41.16
2022-12-11T01:09:28.346Z,41.55
2022-12-11T01:10:23.932Z,40.75
2022-12-11T01:11:19.414Z,41.16
2022-12-11T01:12:04.079Z,41.36
2022-12-11T01:12:59.613Z,41.55
2022-12-11T01:13:55.154Z,41.16
2022-12-11T01:14:50.701Z,41.16
2022-12-11T01:15:46.253Z,40.66
2022-12-11T01:16:41.910Z,41.16
2022-12-11T01:17:37.336Z,41.36
2022-12-11T01:18:32.876Z,41.16
2022-12-11T01:19:28.420Z,41.85
2022-12-11T01:20:23.954Z,41.25
2022-12-11T01:21:19.497Z,41.36
2022-12-11T01:22:15.036Z,40.86
2022-12-11T01:23:10.571Z,41.25
2022-12-11T01:23:55.257Z,41.36
2022-12-11T01:24:50.809Z,40.75
2022-12-11T01:25:46.346Z,40.95
2022-12-11T01:26:41.878Z,41.16
2022-12-11T01:27:37.439Z,41.36
2022-12-11T01:28:32.998Z,41.16
2022-12-11T01:29:28.532Z,41.16
2022-12-11T01:30:24.069Z,41.16
2022-12-11T01:31:19.696Z,41.66
2022-12-11T01:32:15.151Z,40.75
2022-12-11T01:33:10.736Z,41.16
2022-12-11T01:34:06.293Z,41.46
2022-12-11T01:35:01.831Z,41.16
2022-12-11T01:35:57.369Z,41.46
2022-12-11T01:36:52.911Z,41.16
2022-12-11T01:37:48.448Z,41.16
2022-12-11T01:38:43.995Z,40.86
2022-12-11T01:39:39.534Z,40.86
2022-12-11T01:40:35.080Z,41.55
2022-12-11T01:41:30.620Z,40.75
2022-12-11T01:42:26.186Z,40.86
2022-12-11T01:43:21.724Z,41.16
2022-12-11T01:44:17.246Z,41.36
2022-12-11T01:45:12.912Z,41.46
2022-12-11T01:46:08.400Z,40.66
2022-12-11T01:47:03.869Z,41.53
2022-12-11T01:47:48.534Z,40.66
2022-12-11T01:48:44.079Z,41.46
2022-12-11T01:49:39.629Z,41.55
2022-12-11T01:50:35.169Z,41.36
2022-12-11T01:51:30.712Z,40.25
2022-12-11T01:52:26.254Z,41.05
2022-12-11T01:53:21.790Z,41.25
2022-12-11T01:54:17.384Z,40.95
2022-12-11T01:55:13.145Z,40.06
2022-12-11T01:56:08.464Z,41.36
2022-12-11T01:57:04.001Z,41.05
2022-12-11T01:57:59.565Z,40.95
2022-12-11T01:58:55.091Z,40.56
2022-12-11T01:59:50.646Z,41.16
2022-12-11T02:00:46.773Z,40.25
2022-12-11T02:01:42.423Z,41.55
2022-12-11T02:02:37.888Z,40.75
2022-12-11T02:03:33.397Z,41.16
2022-12-11T02:04:28.935Z,40.45
2022-12-11T02:05:24.467Z,40.66
2022-12-11T02:06:20.010Z,40.66
2022-12-11T02:07:15.579Z,40.06
2022-12-11T02:08:11.211Z,40.16
2022-12-11T02:09:06.657Z,41.25
2022-12-11T02:09:51.327Z,41.36
2022-12-11T02:10:46.864Z,41.05
2022-12-11T02:11:42.414Z,41.05
2022-12-11T02:12:37.946Z,41.25
2022-12-11T02:13:33.510Z,41.25
2022-12-11T02:14:29.022Z,41.16
2022-12-11T02:15:24.574Z,41.36
2022-12-11T02:16:20.159Z,40.94
2022-12-11T02:17:15.644Z,41.36
2022-12-11T02:18:11.182Z,40.45
2022-12-11T02:19:06.709Z,41.16
2022-12-11T02:20:02.256Z,41.36
2022-12-11T02:20:57.794Z,41.16
2022-12-11T02:21:53.346Z,40.16
2022-12-11T02:22:48.881Z,40.66
2022-12-11T02:23:44.419Z,41.55
2022-12-11T02:24:39.987Z,41.36
2022-12-11T02:25:35.531Z,41.05
2022-12-11T02:26:31.064Z,41.85
2022-12-11T02:27:26.599Z,40.95
2022-12-11T02:28:22.135Z,41.36
2022-12-11T02:29:17.700Z,41.46
2022-12-11T02:30:13.227Z,40.86
2022-12-11T02:31:08.815Z,40.36
2022-12-11T02:32:04.318Z,40.45
2022-12-11T02:32:59.852Z,40.25
2022-12-11T02:33:55.398Z,40.56
2022-12-11T02:34:50.930Z,40.56
2022-12-11T02:35:46.474Z,40.06
2022-12-11T02:36:42.063Z,40.95
2022-12-11T02:37:37.596Z,40.36
2022-12-11T02:38:33.130Z,41.55
2022-12-11T02:39:28.665Z,41.16
2022-12-11T02:40:24.217Z,41.36
2022-12-11T02:41:19.763Z,40.66
2022-12-11T02:42:15.317Z,40.95
2022-12-11T02:43:10.858Z,41.16
2022-12-11T02:44:06.412Z,41.55
2022-12-11T02:45:01.960Z,41.16
2022-12-11T02:45:57.676Z,41.36
2022-12-11T02:46:53.032Z,41.16
2022-12-11T02:47:48.574Z,41.36
2022-12-11T02:48:44.124Z,41.36
2022-12-11T02:49:39.666Z,40.66
2022-12-11T02:50:35.206Z,40.95
2022-12-11T02:51:30.741Z,40.95
2022-12-11T02:52:26.288Z,41.16
2022-12-11T02:53:21.826Z,41.36
2022-12-11T02:54:17.384Z,41.16
2022-12-11T02:55:13.272Z,41.05
2022-12-11T02:56:08.462Z,40.67
2022-12-11T02:57:04.006Z,40.66
2022-12-11T02:57:59.550Z,41.16
2022-12-11T02:58:58.539Z,40.86
2022-12-11T02:59:50.607Z,41.16
2022-12-11T03:00:46.184Z,41.16
2022-12-11T03:01:41.716Z,40.86
2022-12-11T03:02:37.284Z,41.36
2022-12-11T03:03:32.780Z,40.36
2022-12-11T03:04:28.321Z,40.25
2022-12-11T03:05:23.868Z,41.46
2022-12-11T03:06:19.405Z,40.56
2022-12-11T03:07:14.944Z,41.55
2022-12-11T03:08:10.564Z,40.45
2022-12-11T03:09:06.033Z,40.95
2022-12-11T03:10:01.583Z,40.75
2022-12-11T03:10:57.114Z,41.25
2022-12-11T03:11:52.654Z,40.86
2022-12-11T03:12:53.226Z,41.05
2022-12-11T03:13:43.743Z,41.36
2022-12-11T03:14:39.276Z,41.36
2022-12-11T03:15:34.816Z,41.36
2022-12-11T03:16:30.447Z,40.66
2022-12-11T03:17:25.893Z,41.25
2022-12-11T03:18:21.441Z,41.16
2022-12-11T03:19:16.985Z,40.45
2022-12-11T03:20:12.522Z,40.25
2022-12-11T03:21:08.054Z,41.05
2022-12-11T03:22:03.601Z,40.66
2022-12-11T03:22:59.142Z,41.05
2022-12-11T03:23:54.678Z,41.05
2022-12-11T03:24:50.223Z,41.25
2022-12-11T03:25:45.769Z,41.36
2022-12-11T03:26:41.308Z,41.36
2022-12-11T03:27:36.838Z,41.46
2022-12-11T03:28:32.395Z,41.16
2022-12-11T03:29:27.933Z,40.95
2022-12-11T03:30:23.619Z,41.36
2022-12-11T03:31:19.025Z,40.45
2022-12-11T03:32:14.582Z,40.25
2022-12-11T03:33:10.099Z,40.66
2022-12-11T03:34:05.667Z,40.66
2022-12-11T03:34:53.444Z,41.25
2022-12-11T03:35:45.869Z,40.16
2022-12-11T03:36:41.411Z,41.36
2022-12-11T03:37:36.983Z,40.66
2022-12-11T03:38:32.519Z,40.16
2022-12-11T03:39:28.109Z,40.16
2022-12-11T03:40:23.643Z,41.25
2022-12-11T03:41:19.189Z,40.56
2022-12-11T03:42:14.726Z,40.45
2022-12-11T03:43:10.273Z,40.25
2022-12-11T03:44:05.802Z,40.45
2022-12-11T03:45:01.942Z,41.16
2022-12-11T03:45:57.517Z,40.56
2022-12-11T03:46:53.022Z,40.75
2022-12-11T03:47:48.577Z,40.86
2022-12-11T03:48:44.116Z,40.95
2022-12-11T03:49:39.646Z,41.16
2022-12-11T03:50:35.203Z,40.86
2022-12-11T03:51:30.744Z,40.86
2022-12-11T03:52:26.288Z,40.16
2022-12-11T03:53:21.824Z,41.85
2022-12-11T03:54:17.358Z,40.16
2022-12-11T03:55:13.244Z,40.95
2022-12-11T03:56:08.442Z,40.75
2022-12-11T03:57:03.995Z,40.25
2022-12-11T03:57:59.548Z,41.55
2022-12-11T03:58:55.088Z,41.16
2022-12-11T03:59:50.633Z,41.16
2022-12-11T04:00:46.183Z,40.86
2022-12-11T04:01:41.776Z,41.25
2022-12-11T04:02:37.272Z,41.46
2022-12-11T04:03:32.820Z,40.25
2022-12-11T04:04:28.469Z,41.05
2022-12-11T04:05:23.892Z,40.66
2022-12-11T04:06:19.434Z,40.45
2022-12-11T04:07:14.980Z,40.06
2022-12-11T04:08:10.604Z,39.95
2022-12-11T04:09:06.067Z,41.25
2022-12-11T04:10:01.605Z,41.25
2022-12-11T04:10:57.133Z,40.56
2022-12-11T04:11:41.809Z,40.45
2022-12-11T04:12:37.345Z,41.05
2022-12-11T04:13:32.892Z,40.95
2022-12-11T04:14:28.440Z,41.25
2022-12-11T04:15:23.997Z,41.16
2022-12-11T04:16:19.548Z,41.16
2022-12-11T04:17:15.065Z,40.66
2022-12-11T04:18:10.610Z,40.56
2022-12-11T04:19:06.168Z,41.16
2022-12-11T04:20:01.702Z,41.36
2022-12-11T04:20:57.240Z,40.66
2022-12-11T04:21:52.782Z,40.95
2022-12-11T04:22:48.319Z,41.46
2022-12-11T04:23:43.849Z,41.25
2022-12-11T04:24:39.387Z,40.75
2022-12-11T04:25:24.056Z,40.86
2022-12-11T04:26:19.627Z,41.05
2022-12-11T04:27:15.172Z,40.16
2022-12-11T04:27:59.838Z,41.16
2022-12-11T04:28:55.376Z,40.25
2022-12-11T04:29:50.927Z,40.06
2022-12-11T04:30:35.574Z,40.86
2022-12-11T04:31:31.178Z,40.25
2022-12-11T04:32:26.669Z,41.05
2022-12-11T04:33:11.329Z,40.25
2022-12-11T04:34:06.869Z,41.46
2022-12-11T04:35:02.425Z,40.25
2022-12-11T04:35:57.953Z,41.16
2022-12-11T04:36:53.512Z,40.56
2022-12-11T04:37:49.058Z,40.66
2022-12-11T04:38:44.607Z,40.45
2022-12-11T04:39:40.142Z,40.06
2022-12-11T04:40:35.691Z,40.86
2022-12-11T04:41:31.271Z,41.36
2022-12-11T04:42:15.943Z,40.25
2022-12-11T04:43:11.497Z,40.25
2022-12-11T04:44:07.048Z,41.16
2022-12-11T04:45:02.580Z,41.36
2022-12-11T04:45:58.142Z,41.46
2022-12-11T04:46:53.686Z,40.16
2022-12-11T04:47:49.207Z,40.06
2022-12-11T04:48:44.756Z,40.36
2022-12-11T04:49:40.291Z,41.05
2022-12-11T04:50:35.853Z,40.56
2022-12-11T04:51:31.364Z,40.06
2022-12-11T04:52:26.933Z,39.95
2022-12-11T04:53:22.469Z,40.16
2022-12-11T04:54:18.008Z,40.25
2022-12-11T04:55:13.803Z,40.16
2022-12-11T04:56:09.083Z,40.36
2022-12-11T04:57:04.626Z,40.36
2022-12-11T04:58:00.175Z,41.66
2022-12-11T04:58:55.726Z,40.25
2022-12-11T04:59:51.263Z,40.75
2022-12-11T05:00:46.812Z,40.56
2022-12-11T05:01:42.373Z,40.16
2022-12-11T05:02:37.976Z,40.66
2022-12-11T05:03:33.461Z,40.45
2022-12-11T05:04:28.986Z,41.46
2022-12-11T05:05:24.527Z,41.16
2022-12-11T05:06:20.085Z,40.56
2022-12-11T05:07:15.609Z,40.25
2022-12-11T05:08:11.169Z,40.06
2022-12-11T05:09:06.703Z,40.36
2022-12-11T05:10:02.242Z,41.16
2022-12-11T05:10:57.781Z,40.06
2022-12-11T05:11:53.321Z,40.75
2022-12-11T05:12:48.879Z,40.56
2022-12-11T05:13:44.418Z,40.45
2022-12-11T05:14:39.972Z,40.25
2022-12-11T05:15:35.515Z,40.45
2022-12-11T05:16:31.097Z,40.66
2022-12-11T05:17:26.597Z,40.75
2022-12-11T05:18:22.131Z,41.46
2022-12-11T05:19:17.679Z,40.75
2022-12-11T05:20:13.225Z,40.66
2022-12-11T05:21:08.776Z,40.75
2022-12-11T05:22:04.334Z,41.05
2022-12-11T05:22:59.850Z,40.56
2022-12-11T05:23:55.385Z,40.75
2022-12-11T05:24:40.048Z,40.56
2022-12-11T05:25:24.741Z,40.86
2022-12-11T05:26:20.282Z,40.66
2022-12-11T05:27:15.832Z,40.66
2022-12-11T05:28:11.369Z,40.36
2022-12-11T05:29:06.902Z,41.16
2022-12-11T05:30:02.436Z,40.36
2022-12-11T05:30:58.029Z,40.16
2022-12-11T05:31:53.524Z,40.36
2022-12-11T05:32:49.055Z,40.36
2022-12-11T05:33:44.594Z,40.36
2022-12-11T05:34:40.135Z,40.86
2022-12-11T05:35:35.672Z,40.36
2022-12-11T05:36:31.212Z,40.95
2022-12-11T05:37:26.769Z,40.56
2022-12-11T05:38:22.289Z,40.66
2022-12-11T05:39:17.824Z,40.56
2022-12-11T05:40:13.368Z,40.36
2022-12-11T05:41:08.899Z,40.25
2022-12-11T05:42:04.449Z,40.86
2022-12-11T05:42:59.988Z,40.45
2022-12-11T05:43:55.525Z,41.16
2022-12-11T05:44:51.073Z,40.66
2022-12-11T05:45:46.616Z,40.45
2022-12-11T05:46:42.227Z,40.66
2022-12-11T05:47:37.710Z,40.36
2022-12-11T05:48:33.252Z,40.75
2022-12-11T05:49:31.009Z,41.05
2022-12-11T05:50:24.342Z,41.16
2022-12-11T05:51:09.057Z,40.56
2022-12-11T05:52:04.591Z,40.16
2022-12-11T05:53:00.126Z,40.75
2022-12-11T05:53:55.662Z,40.36
2022-12-11T05:54:51.193Z,40.66
2022-12-11T05:55:46.717Z,40.66
2022-12-11T05:56:42.256Z,40.66
2022-12-11T05:57:37.790Z,41.16
2022-12-11T05:58:33.352Z,40.36
2022-12-11T05:59:28.892Z,40.06
2022-12-11T06:00:24.421Z,40.86
2022-12-11T06:01:19.959Z,41.05
2022-12-11T06:02:15.602Z,40.45
2022-12-11T06:03:11.121Z,40.45
2022-12-11T06:04:06.561Z,40.75
2022-12-11T06:05:02.094Z,40.56
2022-12-11T06:05:57.623Z,41.05
2022-12-11T06:06:53.152Z,40.95
2022-12-11T06:07:48.731Z,40.86
2022-12-11T06:08:44.233Z,40.86
2022-12-11T06:09:39.753Z,40.45
2022-12-11T06:10:35.306Z,40.66
2022-12-11T06:11:30.829Z,40.25
2022-12-11T06:12:26.359Z,40.66
2022-12-11T06:13:21.897Z,41.16
2022-12-11T06:14:17.440Z,40.75
2022-12-11T06:15:13.284Z,40.56
2022-12-11T06:16:08.610Z,40.66
2022-12-11T06:17:04.060Z,40.66
2022-12-11T06:17:59.595Z,41.05
2022-12-11T06:18:58.232Z,40.86
2022-12-11T06:19:50.682Z,41.25
2022-12-11T06:20:46.221Z,40.86
2022-12-11T06:21:41.752Z,40.95
2022-12-11T06:22:37.285Z,41.05
2022-12-11T06:23:32.824Z,41.25
2022-12-11T06:24:28.382Z,40.56
2022-12-11T06:25:23.887Z,40.45
2022-12-11T06:26:19.430Z,39.94
2022-12-11T06:27:14.963Z,40.53
2022-12-11T06:28:10.497Z,40.73
2022-12-11T06:29:09.247Z,40.83
2022-12-11T06:30:01.571Z,40.16
2022-12-11T06:30:57.154Z,39.94
2022-12-11T06:31:52.666Z,40.73
2022-12-11T06:32:48.155Z,39.84
2022-12-11T06:33:43.679Z,40.34
2022-12-11T06:34:39.213Z,40.44
2022-12-11T06:35:40.298Z,40.64
2022-12-11T06:36:30.305Z,40.14
2022-12-11T06:37:25.826Z,40.44
2022-12-11T06:38:21.346Z,40.14
2022-12-11T06:39:16.880Z,40.64
2022-12-11T06:40:12.434Z,40.83
2022-12-11T06:41:07.956Z,40.53
2022-12-11T06:42:03.469Z,39.84
2022-12-11T06:42:59.004Z,40.34
2022-12-11T06:43:54.535Z,40.73
2022-12-11T06:44:50.062Z,40.04
2022-12-11T06:45:45.618Z,40.83
2022-12-11T06:46:41.144Z,40.34
2022-12-11T06:47:36.677Z,40.04
2022-12-11T06:48:32.218Z,40.73
2022-12-11T06:49:27.763Z,40.53
2022-12-11T06:50:23.299Z,40.83
2022-12-11T06:51:18.824Z,39.84
2022-12-11T06:52:18.358Z,39.94
2022-12-11T06:53:10.001Z,40.64
2022-12-11T06:54:05.537Z,40.94
2022-12-11T06:55:01.067Z,40.73
2022-12-11T06:55:56.613Z,40.23
2022-12-11T06:56:52.129Z,40.04
2022-12-11T06:57:47.670Z,40.64
2022-12-11T06:58:43.203Z,40.73
2022-12-11T06:59:38.734Z,40.34
2022-12-11T07:00:34.338Z,40.44
2022-12-11T07:01:29.858Z,40.44
2022-12-11T07:02:25.418Z,40.83
2022-12-11T07:03:20.887Z,40.64
2022-12-11T07:04:16.449Z,39.74
2022-12-11T07:05:12.139Z,40.44
2022-12-11T07:06:07.590Z,40.23
2022-12-11T07:07:03.122Z,39.94
2022-12-11T07:07:58.750Z,40.34
2022-12-11T07:08:54.246Z,40.34
2022-12-11T07:09:49.770Z,40.34
2022-12-11T07:10:45.304Z,41.03
2022-12-11T07:11:40.844Z,40.44
2022-12-11T07:12:36.368Z,40.73
2022-12-11T07:13:31.877Z,39.94
2022-12-11T07:14:27.414Z,41.16
2022-12-11T07:15:22.946Z,41.14
2022-12-11T07:16:18.566Z,40.44
2022-12-11T07:17:14.042Z,41.16
2022-12-11T07:18:09.575Z,40.83
2022-12-11T07:19:05.120Z,40.86
2022-12-11T07:20:00.635Z,40.66
2022-12-11T07:20:56.171Z,40.34
2022-12-11T07:21:51.701Z,39.74
2022-12-11T07:22:47.231Z,40.45
2022-12-11T07:23:42.761Z,40.83
2022-12-11T07:24:38.288Z,40.64
2022-12-11T07:25:33.809Z,40.36
2022-12-11T07:26:29.342Z,40.14
2022-12-11T07:27:24.896Z,40.44
2022-12-11T07:28:20.424Z,40.56
2022-12-11T07:29:15.956Z,40.23
2022-12-11T07:30:11.493Z,39.86
2022-12-11T07:31:07.024Z,41.05
2022-12-11T07:32:02.656Z,40.53
2022-12-11T07:32:58.108Z,40.66
2022-12-11T07:33:53.628Z,40.16
2022-12-11T07:34:51.973Z,40.45
2022-12-11T07:35:44.689Z,40.45
2022-12-11T07:36:40.212Z,39.84
2022-12-11T07:37:35.745Z,40.86
2022-12-11T07:38:31.276Z,40.44
2022-12-11T07:39:26.810Z,40.83
2022-12-11T07:40:22.345Z,40.16
2022-12-11T07:41:17.886Z,40.45
2022-12-11T07:42:13.421Z,40.66
2022-12-11T07:43:08.980Z,39.95
2022-12-11T07:44:04.503Z,40.44
2022-12-11T07:45:00.031Z,40.66
2022-12-11T07:45:55.628Z,41.05
2022-12-11T07:46:51.092Z,40.23
2022-12-11T07:47:46.627Z,39.84
2022-12-11T07:48:42.174Z,40.44
2022-12-11T07:49:37.699Z,40.23
2022-12-11T07:50:38.141Z,40.56
2022-12-11T07:51:28.756Z,40.56
2022-12-11T07:52:24.282Z,40.53
2022-12-11T07:53:19.812Z,40.56
2022-12-11T07:54:15.337Z,40.86
2022-12-11T07:55:11.091Z,40.66
2022-12-11T07:56:06.398Z,40.86
2022-12-11T07:57:01.922Z,40.23
2022-12-11T07:57:57.452Z,40.44
2022-12-11T07:58:52.997Z,40.64
2022-12-11T07:59:48.507Z,40.53
2022-12-11T08:00:44.043Z,39.54
2022-12-11T08:01:39.630Z,39.64
2022-12-11T08:02:37.412Z,40.34
2022-12-11T08:03:30.648Z,40.83
2022-12-11T08:04:26.180Z,40.34
2022-12-11T08:05:21.711Z,40.44
2022-12-11T08:06:17.246Z,40.04
2022-12-11T08:07:12.771Z,39.56
2022-12-11T08:08:08.369Z,40.04
2022-12-11T08:09:03.846Z,39.94
2022-12-11T08:09:59.373Z,40.64
2022-12-11T08:10:54.917Z,40.34
2022-12-11T08:11:50.468Z,39.74
2022-12-11T08:12:45.978Z,40.64
2022-12-11T08:13:41.508Z,39.74
2022-12-11T08:14:37.060Z,39.64
2022-12-11T08:15:32.576Z,40.34
2022-12-11T08:16:28.156Z,39.84
2022-12-11T08:17:29.120Z,40.23
2022-12-11T08:18:19.176Z,39.74
2022-12-11T08:19:14.734Z,40.04
2022-12-11T08:20:10.261Z,40.34
2022-12-11T08:21:05.783Z,40.53
2022-12-11T08:22:01.320Z,40.53
2022-12-11T08:22:59.221Z,39.64
2022-12-11T08:23:52.379Z,39.84
2022-12-11T08:24:47.916Z,40.83
2022-12-11T08:25:43.448Z,40.44
2022-12-11T08:26:38.972Z,39.95
2022-12-11T08:27:34.509Z,40.14
2022-12-11T08:28:30.043Z,40.14
2022-12-11T08:29:25.581Z,40.14
2022-12-11T08:30:21.135Z,40.04
2022-12-11T08:31:16.697Z,40.04
2022-12-11T08:32:12.664Z,39.64
2022-12-11T08:33:07.709Z,39.94
2022-12-11T08:34:03.249Z,40.04
2022-12-11T08:34:58.788Z,40.34
2022-12-11T08:35:54.324Z,41.03
2022-12-11T08:36:49.857Z,39.94
2022-12-11T08:37:45.389Z,40.83
2022-12-11T08:38:40.911Z,40.14
2022-12-11T08:39:36.466Z,39.84
2022-12-11T08:40:31.990Z,40.34
2022-12-11T08:41:27.534Z,39.76
2022-12-11T08:42:23.062Z,39.74
2022-12-11T08:43:18.591Z,40.04
2022-12-11T08:44:16.691Z,40.23
2022-12-11T08:45:10.101Z,40.04
2022-12-11T08:46:05.268Z,40.83
2022-12-11T08:47:00.713Z,40.44
2022-12-11T08:47:56.243Z,39.94
2022-12-11T08:48:51.785Z,39.94
2022-12-11T08:49:47.330Z,40.14
2022-12-11T08:50:42.847Z,40.64
2022-12-11T08:51:38.445Z,39.94
2022-12-11T08:52:33.928Z,40.04
2022-12-11T08:53:18.387Z,39.94
2022-12-11T08:54:13.924Z,39.94
2022-12-11T08:55:09.814Z,40.14
2022-12-11T08:56:05.010Z,39.84
2022-12-11T08:57:00.554Z,40.83
2022-12-11T08:57:56.078Z,40.64
2022-12-11T08:58:51.707Z,39.84
2022-12-11T08:59:47.229Z,39.84
2022-12-11T09:00:42.764Z,39.84
2022-12-11T09:01:38.481Z,40.44
2022-12-11T09:02:33.852Z,39.74
2022-12-11T09:03:29.367Z,40.23
2022-12-11T09:04:24.899Z,40.14
2022-12-11T09:05:20.427Z,39.84
2022-12-11T09:06:15.971Z,39.84
2022-12-11T09:07:11.494Z,39.74
2022-12-11T09:08:07.088Z,40.83
2022-12-11T09:09:02.565Z,39.74
2022-12-11T09:09:58.082Z,39.64
2022-12-11T09:10:53.610Z,39.84
2022-12-11T09:11:49.211Z,39.94
2022-12-11T09:12:59.876Z,39.64
2022-12-11T09:13:55.406Z,39.94
2022-12-11T09:14:50.939Z,40.14
2022-12-11T09:15:46.517Z,39.84
2022-12-11T09:16:42.025Z,39.54
2022-12-11T09:17:37.545Z,40.64
2022-12-11T09:18:33.077Z,40.04
2022-12-11T09:19:32.239Z,39.64
2022-12-11T09:20:24.141Z,40.53
2022-12-11T09:21:08.625Z,40.34
2022-12-11T09:22:04.163Z,39.64
2022-12-11T09:22:59.706Z,39.94
2022-12-11T09:23:55.244Z,40.64
2022-12-11T09:24:50.777Z,40.04
2022-12-11T09:25:46.303Z,40.64
2022-12-11T09:26:41.837Z,40.34
2022-12-11T09:27:37.375Z,39.74
2022-12-11T09:28:32.906Z,40.83
2022-12-11T09:29:28.456Z,39.94
2022-12-11T09:30:23.982Z,40.64
2022-12-11T09:31:19.588Z,39.64
2022-12-11T09:32:15.094Z,40.23
2022-12-11T09:33:10.593Z,39.56
2022-12-11T09:34:06.128Z,39.64
2022-12-11T09:35:01.691Z,40.23
2022-12-11T09:35:57.207Z,39.84
2022-12-11T09:36:52.769Z,40.34
2022-12-11T09:37:48.278Z,39.94
2022-12-11T09:38:43.812Z,39.84
2022-12-11T09:39:39.345Z,40.44
2022-12-11T09:40:34.883Z,40.04
2022-12-11T09:41:30.419Z,39.74
2022-12-11T09:42:25.947Z,40.73
2022-12-11T09:43:21.472Z,39.76
2022-12-11T09:44:17.009Z,39.84
2022-12-11T09:45:12.953Z,39.74
2022-12-11T09:46:08.201Z,39.74
2022-12-11T09:47:03.703Z,39.54
2022-12-11T09:47:48.195Z,40.64
2022-12-11T09:48:43.711Z,40.06
2022-12-11T09:49:39.238Z,40.04
2022-12-11T09:50:34.779Z,39.76
2022-12-11T09:51:30.307Z,39.54
2022-12-11T09:52:25.849Z,39.64
2022-12-11T09:53:21.388Z,39.94
2022-12-11T09:54:16.917Z,39.64
2022-12-11T09:55:12.724Z,41.14
2022-12-11T09:56:08.000Z,40.64
2022-12-11T09:57:03.531Z,39.84
2022-12-11T09:57:59.075Z,39.54
2022-12-11T09:58:54.609Z,39.64
2022-12-11T09:59:50.133Z,39.86
2022-12-11T10:00:45.667Z,40.04
2022-12-11T10:01:41.260Z,40.04
2022-12-11T10:02:36.789Z,39.84
2022-12-11T10:03:32.279Z,40.04
2022-12-11T10:04:27.793Z,39.94
2022-12-11T10:05:24.336Z,39.54
2022-12-11T10:06:19.873Z,39.54
2022-12-11T10:07:15.423Z,39.74
2022-12-11T10:08:10.983Z,40.14
2022-12-11T10:09:06.495Z,39.64
2022-12-11T10:10:02.032Z,39.84
2022-12-11T10:10:57.563Z,39.74
2022-12-11T10:11:56.825Z,40.04
2022-12-11T10:12:48.630Z,39.84
2022-12-11T10:13:44.217Z,39.84
2022-12-11T10:14:39.797Z,39.54
2022-12-11T10:15:35.291Z,39.74
2022-12-11T10:16:30.815Z,39.74
2022-12-11T10:17:26.344Z,39.94
2022-12-11T10:18:21.900Z,40.23
2022-12-11T10:19:17.431Z,39.74
2022-12-11T10:20:12.958Z,39.84
2022-12-11T10:21:08.488Z,39.54
2022-12-11T10:22:04.017Z,39.54
2022-12-11T10:22:59.566Z,39.84
2022-12-11T10:23:55.102Z,40.44
2022-12-11T10:25:20.111Z,39.94
2022-12-11T10:25:47.190Z,40.14
2022-12-11T10:26:42.718Z,40.23
2022-12-11T10:27:38.247Z,39.84
2022-12-11T10:28:33.809Z,39.74
2022-12-11T10:29:29.342Z,40.23
2022-12-11T10:30:24.873Z,40.14
2022-12-11T10:31:20.444Z,39.84
2022-12-11T10:32:15.943Z,39.84
2022-12-11T10:33:11.495Z,40.34
2022-12-11T10:34:07.042Z,40.34
2022-12-11T10:35:02.603Z,40.23
2022-12-11T10:35:58.117Z,40.23
2022-12-11T10:36:58.796Z,39.34
2022-12-11T10:37:49.199Z,39.84
2022-12-11T10:38:44.733Z,39.34
2022-12-11T10:39:40.273Z,40.14
2022-12-11T10:40:35.801Z,40.04
2022-12-11T10:41:31.342Z,40.14
2022-12-11T10:42:26.869Z,39.43
2022-12-11T10:43:22.407Z,39.84
2022-12-11T10:44:17.942Z,40.04
2022-12-11T10:45:13.709Z,40.04
2022-12-11T10:46:09.069Z,39.43
2022-12-11T10:47:04.545Z,40.23
2022-12-11T10:48:00.075Z,40.44
2022-12-11T10:48:55.610Z,39.54
2022-12-11T10:49:51.144Z,39.54
2022-12-11T10:50:46.705Z,39.54
2022-12-11T10:51:42.228Z,39.54
2022-12-11T10:52:37.763Z,39.74
2022-12-11T10:53:33.293Z,40.14
2022-12-11T10:54:28.825Z,39.84
2022-12-11T10:55:24.366Z,40.14
2022-12-11T10:56:19.900Z,40.04
2022-12-11T10:57:16.465Z,39.84
2022-12-11T10:58:11.989Z,39.74
2022-12-11T10:59:07.527Z,40.14
2022-12-11T11:00:03.094Z,39.94
2022-12-11T11:00:58.631Z,39.94
2022-12-11T11:01:54.183Z,40.34
2022-12-11T11:02:49.724Z,40.06
2022-12-11T11:03:45.220Z,39.64
2022-12-11T11:04:40.756Z,40.14
2022-12-11T11:05:36.288Z,40.23
2022-12-11T11:06:31.847Z,40.34
2022-12-11T11:07:27.375Z,39.74
2022-12-11T11:08:22.948Z,40.04
2022-12-11T11:09:18.543Z,40.14
2022-12-11T11:10:14.079Z,40.14
2022-12-11T11:11:09.611Z,39.94
2022-12-11T11:12:08.036Z,39.74
2022-12-11T11:13:00.673Z,39.43
2022-12-11T11:13:56.216Z,40.23
2022-12-11T11:14:51.759Z,39.24
2022-12-11T11:15:47.344Z,40.04
2022-12-11T11:16:42.823Z,39.84
2022-12-11T11:17:44.668Z,40.14
2022-12-11T11:18:33.891Z,40.23
2022-12-11T11:19:29.445Z,40.23
2022-12-11T11:20:24.960Z,39.64
2022-12-11T11:21:20.494Z,40.04
2022-12-11T11:22:16.055Z,41.14
2022-12-11T11:23:11.570Z,39.94
2022-12-11T11:24:07.099Z,40.04
2022-12-11T11:25:02.638Z,40.14
2022-12-11T11:25:58.198Z,40.06
2022-12-11T11:27:12.797Z,40.64
2022-12-11T11:27:49.274Z,39.84
2022-12-11T11:28:44.801Z,40.23
2022-12-11T11:29:40.331Z,39.84
2022-12-11T11:30:35.882Z,40.34
2022-12-11T11:31:31.479Z,39.94
2022-12-11T11:32:26.942Z,39.84
2022-12-11T11:33:11.432Z,40.34
2022-12-11T11:33:55.922Z,39.74
2022-12-11T11:34:51.456Z,39.43
2022-12-11T11:35:46.996Z,39.84
2022-12-11T11:36:42.530Z,39.84
2022-12-11T11:37:38.072Z,39.43
2022-12-11T11:38:33.589Z,39.54
2022-12-11T11:39:29.124Z,39.34
2022-12-11T11:40:24.664Z,40.34
2022-12-11T11:41:20.191Z,39.54
2022-12-11T11:42:15.727Z,40.04
2022-12-11T11:43:11.256Z,40.04
2022-12-11T11:44:06.799Z,40.23
2022-12-11T11:45:02.330Z,39.64
2022-12-11T11:45:57.863Z,39.84
2022-12-11T11:46:53.510Z,39.34
2022-12-11T11:47:48.950Z,40.34
2022-12-11T11:48:44.490Z,39.54
2022-12-11T11:49:40.025Z,39.84
2022-12-11T11:50:35.549Z,39.54